createdAt,value
2023-03-31T04:36:49.349Z,99.90
2023-03-31T04:39:18.572Z,99.90
2023-03-31T04:41:46.499Z,99.90
2023-03-31T04:44:14.226Z,99.90
2023-03-31T04:46:41.926Z,99.90
2023-03-31T04:49:09.666Z,99.90
2023-03-31T04:51:37.476Z,99.90
2023-03-31T04:54:06.744Z,99.90
2023-03-31T04:56:35.237Z,99.90
2023-03-31T04:59:03.892Z,99.90
2023-03-31T05:01:33.582Z,99.90
2023-03-31T05:04:01.379Z,99.90
2023-03-31T05:06:32.248Z,99.90
2023-03-31T05:08:59.990Z,99.90
2023-03-31T09:06:52.013Z,99.90
2023-03-31T09:09:27.378Z,99.90
2023-03-31T09:11:57.758Z,99.90
2023-03-31T09:28:58.923Z,99.90
2023-03-31T09:31:27.573Z,99.90
2023-03-31T12:12:56.819Z,99.90
2023-03-31T12:15:27.754Z,99.90
2023-03-31T12:18:01.568Z,99.90
2023-03-31T12:20:37.929Z,99.90
2023-03-31T12:23:13.973Z,99.90
2023-03-31T12:25:53.104Z,99.90
2023-03-31T12:28:23.973Z,99.90
2023-03-31T12:30:53.792Z,99.90
2023-03-31T12:33:27.106Z,99.90
2023-03-31T12:36:10.646Z,99.90
2023-03-31T12:38:49.928Z,99.90
2023-03-31T12:41:26.553Z,99.90
2023-03-31T12:44:15.601Z,99.90
2023-03-31T12:47:05.401Z,99.90
2023-03-31T12:50:05.454Z,99.90
2023-03-31T12:52:40.683Z,99.90
2023-03-31T12:55:24.933Z,99.90
2023-03-31T12:57:52.793Z,99.90
2023-03-31T13:00:27.565Z,99.90
2023-03-31T13:03:34.070Z,99.90
2023-03-31T13:06:02.111Z,99.90
2023-03-31T13:08:54.754Z,99.90
2023-03-31T13:11:35.564Z,99.90
2023-03-31T13:14:05.411Z,99.90
2023-03-31T13:16:36.546Z,99.90
2023-03-31T13:19:04.592Z,99.90
2023-03-31T13:21:32.351Z,99.90
2023-03-31T13:24:03.550Z,99.90
2023-03-31T13:26:46.831Z,99.90
2023-03-31T13:29:24.604Z,99.90
2023-03-31T13:32:21.146Z,99.90
2023-03-31T13:35:00.691Z,99.90
2023-03-31T13:38:03.211Z,99.30
2023-03-31T13:41:05.169Z,96.90
2023-03-31T13:44:00.442Z,96.90
2023-03-31T13:46:52.929Z,94.30
2023-03-31T13:49:54.184Z,95.00
2023-03-31T13:52:34.386Z,92.90
2023-03-31T13:55:29.630Z,91.70
2023-03-31T13:58:33.700Z,91.70
2023-03-31T14:01:25.840Z,90.90
2023-03-31T14:04:10.326Z,89.30
2023-03-31T14:06:45.529Z,88.60
2023-03-31T14:09:21.607Z,87.30
2023-03-31T14:11:50.625Z,90.10
2023-03-31T14:14:20.090Z,89.10
2023-03-31T14:16:51.716Z,88.10
2023-03-31T14:19:39.787Z,87.40
2023-03-31T14:22:17.979Z,89.30
2023-03-31T14:24:52.899Z,90.70
2023-03-31T14:27:39.204Z,91.40
2023-03-31T14:30:17.601Z,90.90
2023-03-31T14:32:53.207Z,91.50
2023-03-31T14:35:28.837Z,92.00
2023-03-31T14:37:58.436Z,94.50
2023-03-31T14:40:26.745Z,99.90
2023-03-31T14:42:54.511Z,99.90
2023-03-31T14:45:25.174Z,99.90
2023-03-31T14:47:57.620Z,99.90
2023-03-31T14:50:32.650Z,99.90
2023-03-31T14:53:02.388Z,99.90
2023-03-31T14:55:54.245Z,99.90
2023-03-31T14:58:27.104Z,99.90
2023-03-31T15:00:56.070Z,99.90
2023-03-31T15:03:26.397Z,99.90
2023-03-31T15:05:58.426Z,99.90
2023-03-31T15:08:29.776Z,99.90
2023-03-31T15:11:11.911Z,99.90
2023-03-31T15:13:56.799Z,99.90
2023-03-31T15:16:36.219Z,99.90
2023-03-31T15:19:12.588Z,99.90
2023-03-31T15:21:40.532Z,99.90
2023-03-31T15:24:13.053Z,99.90
2023-03-31T15:26:46.575Z,99.90
2023-03-31T15:29:20.394Z,99.90
2023-03-31T15:31:48.948Z,99.90
2023-03-31T15:34:23.003Z,99.90
2023-03-31T15:36:50.985Z,99.90
2023-03-31T15:39:21.559Z,99.90
2023-03-31T15:41:49.919Z,99.90
2023-03-31T15:44:31.203Z,99.90
2023-03-31T15:47:07.084Z,99.90
2023-03-31T15:49:35.341Z,99.90
2023-03-31T15:52:03.481Z,99.90
2023-03-31T15:54:36.837Z,99.90
2023-03-31T15:57:06.941Z,99.90
2023-03-31T16:02:22.851Z,99.90
2023-03-31T16:04:52.066Z,99.90
2023-03-31T16:07:23.485Z,99.90
2023-03-31T16:09:56.249Z,99.90
2023-03-31T16:12:26.772Z,99.90
2023-03-31T16:14:58.873Z,99.90
2023-03-31T16:17:31.329Z,99.90
2023-03-31T16:20:07.036Z,99.90
2023-03-31T16:22:39.694Z,99.90
2023-03-31T16:25:14.292Z,99.90
2023-03-31T16:27:44.886Z,99.90
2023-03-31T16:30:16.043Z,99.90
2023-03-31T16:33:03.016Z,99.90
2023-03-31T16:35:33.045Z,99.90
2023-03-31T16:38:02.671Z,99.90
2023-03-31T16:40:35.693Z,99.90
2023-03-31T16:43:12.214Z,99.90
2023-03-31T16:45:40.092Z,99.90
2023-03-31T16:48:15.590Z,99.90
2023-03-31T16:50:44.315Z,99.90
2023-03-31T16:53:14.060Z,99.90
2023-03-31T16:55:43.438Z,99.90
2023-03-31T16:58:11.254Z,99.90
2023-03-31T17:00:40.349Z,99.90
2023-03-31T17:03:10.302Z,99.90
2023-03-31T17:05:41.363Z,99.90
2023-03-31T17:08:10.106Z,99.90
2023-03-31T17:10:38.816Z,99.90
2023-03-31T17:13:11.085Z,99.90
2023-03-31T17:15:39.928Z,99.90
2023-03-31T17:18:07.833Z,99.90
2023-03-31T17:20:36.362Z,99.90
2023-03-31T17:23:04.392Z,99.90
2023-03-31T17:25:32.889Z,99.90
2023-03-31T17:28:02.759Z,99.90
2023-03-31T17:30:34.144Z,99.90
2023-03-31T17:33:01.964Z,99.90
2023-03-31T17:35:30.597Z,99.90
2023-03-31T17:37:58.552Z,99.90
2023-03-31T17:40:28.012Z,99.90
2023-03-31T17:42:56.198Z,99.90
2023-03-31T17:45:26.908Z,99.90
2023-03-31T17:47:56.354Z,99.90
2023-03-31T17:50:27.091Z,99.90
2023-03-31T17:52:58.391Z,99.90
2023-03-31T17:55:27.124Z,99.90
2023-03-31T17:57:54.995Z,99.90
2023-03-31T18:00:23.218Z,99.90
2023-03-31T18:02:51.191Z,99.90
2023-03-31T18:05:20.744Z,99.90
2023-03-31T18:07:48.788Z,99.90
2023-03-31T18:10:18.655Z,99.90
2023-03-31T18:12:46.646Z,99.90
2023-03-31T18:15:14.460Z,99.90
2023-03-31T18:17:43.258Z,99.90
2023-03-31T18:20:12.820Z,99.90
2023-03-31T18:22:42.096Z,99.90
2023-03-31T18:25:11.364Z,99.90
2023-03-31T18:27:39.149Z,99.90
2023-03-31T18:30:08.503Z,99.90
2023-03-31T18:32:36.796Z,99.90
2023-03-31T18:35:05.626Z,99.90
2023-03-31T18:37:33.828Z,99.90
2023-03-31T18:40:03.650Z,99.90
2023-03-31T18:42:31.465Z,99.90
2023-03-31T18:44:59.239Z,99.90
2023-03-31T18:47:26.999Z,99.90
2023-03-31T18:49:55.774Z,99.90
2023-03-31T18:52:23.637Z,99.90
2023-03-31T18:54:51.544Z,99.90
